sensor_id;sensor_type;location;lat;lon;timestamp;temperature;humidity
16980;DHT22;42288;52.182;21.156;2023-04-03T00:01:03;5.40;93.70
16980;DHT22;42288;52.182;21.156;2023-04-03T00:03:29;5.50;93.50
16980;DHT22;42288;52.182;21.156;2023-04-03T00:05:55;5.40;94.40
16980;DHT22;42288;52.182;21.156;2023-04-03T00:08:20;5.40;96.20
16980;DHT22;42288;52.182;21.156;2023-04-03T00:10:46;5.20;94.30
16980;DHT22;42288;52.182;21.156;2023-04-03T00:13:12;5.20;93.30
16980;DHT22;42288;52.182;21.156;2023-04-03T00:15:38;5.00;94.00
16980;DHT22;42288;52.182;21.156;2023-04-03T00:18:04;4.90;91.80
16980;DHT22;42288;52.182;21.156;2023-04-03T00:20:31;4.90;93.10
16980;DHT22;42288;52.182;21.156;2023-04-03T00:22:57;4.90;93.70
16980;DHT22;42288;52.182;21.156;2023-04-03T00:25:23;4.70;93.70
16980;DHT22;42288;52.182;21.156;2023-04-03T00:27:48;4.60;93.20
16980;DHT22;42288;52.182;21.156;2023-04-03T00:30:17;4.70;94.80
16980;DHT22;42288;52.182;21.156;2023-04-03T00:32:43;4.60;94.50
16980;DHT22;42288;52.182;21.156;2023-04-03T00:35:08;4.70;94.60
16980;DHT22;42288;52.182;21.156;2023-04-03T00:37:35;4.70;94.70
16980;DHT22;42288;52.182;21.156;2023-04-03T00:40:01;4.80;96.30
16980;DHT22;42288;52.182;21.156;2023-04-03T00:42:26;4.70;94.40
16980;DHT22;42288;52.182;21.156;2023-04-03T00:47:21;4.60;95.40
16980;DHT22;42288;52.182;21.156;2023-04-03T00:49:47;4.40;94.00
16980;DHT22;42288;52.182;21.156;2023-04-03T00:52:16;4.40;93.80
16980;DHT22;42288;52.182;21.156;2023-04-03T00:54:43;4.40;93.00
16980;DHT22;42288;52.182;21.156;2023-04-03T00:57:11;4.40;93.80
16980;DHT22;42288;52.182;21.156;2023-04-03T00:59:40;4.40;93.40
16980;DHT22;42288;52.182;21.156;2023-04-03T01:02:07;4.30;94.80
16980;DHT22;42288;52.182;21.156;2023-04-03T01:04:39;4.30;95.10
16980;DHT22;42288;52.182;21.156;2023-04-03T01:07:16;4.20;93.00
16980;DHT22;42288;52.182;21.156;2023-04-03T01:09:42;4.20;94.10
16980;DHT22;42288;52.182;21.156;2023-04-03T01:12:21;4.10;93.90
16980;DHT22;42288;52.182;21.156;2023-04-03T01:14:59;4.10;94.70
16980;DHT22;42288;52.182;21.156;2023-04-03T01:23:22;3.90;94.20
16980;DHT22;42288;52.182;21.156;2023-04-03T01:25:51;3.90;91.80
16980;DHT22;42288;52.182;21.156;2023-04-03T01:28:27;4.00;94.20
16980;DHT22;42288;52.182;21.156;2023-04-03T01:31:15;3.90;94.10
16980;DHT22;42288;52.182;21.156;2023-04-03T01:33:43;4.00;94.50
16980;DHT22;42288;52.182;21.156;2023-04-03T01:36:14;4.00;93.80
16980;DHT22;42288;52.182;21.156;2023-04-03T01:38:40;4.10;94.70
16980;DHT22;42288;52.182;21.156;2023-04-03T01:41:06;3.90;93.10
16980;DHT22;42288;52.182;21.156;2023-04-03T01:43:32;4.00;95.00
16980;DHT22;42288;52.182;21.156;2023-04-03T01:45:57;3.90;94.20
16980;DHT22;42288;52.182;21.156;2023-04-03T01:48:23;3.90;95.40
16980;DHT22;42288;52.182;21.156;2023-04-03T01:50:49;3.80;93.20
16980;DHT22;42288;52.182;21.156;2023-04-03T01:53:14;3.50;93.30
16980;DHT22;42288;52.182;21.156;2023-04-03T01:55:41;3.50;93.20
16980;DHT22;42288;52.182;21.156;2023-04-03T01:58:07;3.60;95.10
16980;DHT22;42288;52.182;21.156;2023-04-03T02:00:33;3.50;94.00
16980;DHT22;42288;52.182;21.156;2023-04-03T02:02:59;3.50;93.60
16980;DHT22;42288;52.182;21.156;2023-04-03T02:05:24;3.50;94.20
16980;DHT22;42288;52.182;21.156;2023-04-03T02:07:50;3.50;94.00
16980;DHT22;42288;52.182;21.156;2023-04-03T02:10:16;3.60;93.20
16980;DHT22;42288;52.182;21.156;2023-04-03T02:12:41;3.50;93.70
16980;DHT22;42288;52.182;21.156;2023-04-03T02:15:07;3.40;93.60
16980;DHT22;42288;52.182;21.156;2023-04-03T02:17:34;3.40;93.20
16980;DHT22;42288;52.182;21.156;2023-04-03T02:20:00;3.50;95.00
16980;DHT22;42288;52.182;21.156;2023-04-03T02:22:25;3.50;94.80
16980;DHT22;42288;52.182;21.156;2023-04-03T02:24:51;3.50;94.50
16980;DHT22;42288;52.182;21.156;2023-04-03T02:27:17;3.30;94.30
16980;DHT22;42288;52.182;21.156;2023-04-03T02:29:43;3.30;94.40
16980;DHT22;42288;52.182;21.156;2023-04-03T02:32:09;3.20;93.20
16980;DHT22;42288;52.182;21.156;2023-04-03T02:34:34;3.20;95.20
16980;DHT22;42288;52.182;21.156;2023-04-03T02:37:00;3.20;95.00
16980;DHT22;42288;52.182;21.156;2023-04-03T02:39:26;3.40;95.20
16980;DHT22;42288;52.182;21.156;2023-04-03T02:41:51;3.10;93.70
16980;DHT22;42288;52.182;21.156;2023-04-03T02:44:17;3.10;95.40
16980;DHT22;42288;52.182;21.156;2023-04-03T02:46:43;3.10;94.40
16980;DHT22;42288;52.182;21.156;2023-04-03T02:49:08;3.00;93.80
16980;DHT22;42288;52.182;21.156;2023-04-03T02:51:34;3.10;94.70
16980;DHT22;42288;52.182;21.156;2023-04-03T02:54:00;3.10;95.00
16980;DHT22;42288;52.182;21.156;2023-04-03T02:56:26;3.10;95.00
16980;DHT22;42288;52.182;21.156;2023-04-03T02:58:52;3.00;94.40
16980;DHT22;42288;52.182;21.156;2023-04-03T03:01:17;2.90;94.80
16980;DHT22;42288;52.182;21.156;2023-04-03T03:03:43;2.80;94.00
16980;DHT22;42288;52.182;21.156;2023-04-03T03:06:11;2.70;93.20
16980;DHT22;42288;52.182;21.156;2023-04-03T03:08:37;2.70;94.90
16980;DHT22;42288;52.182;21.156;2023-04-03T03:11:04;2.70;94.90
16980;DHT22;42288;52.182;21.156;2023-04-03T03:13:30;3.00;95.20
16980;DHT22;42288;52.182;21.156;2023-04-03T03:15:56;2.80;95.10
16980;DHT22;42288;52.182;21.156;2023-04-03T03:18:22;2.90;94.80
16980;DHT22;42288;52.182;21.156;2023-04-03T03:20:58;2.60;94.30
16980;DHT22;42288;52.182;21.156;2023-04-03T03:23:25;2.50;94.20
16980;DHT22;42288;52.182;21.156;2023-04-03T03:26:05;2.50;93.60
16980;DHT22;42288;52.182;21.156;2023-04-03T03:28:31;2.60;94.90
16980;DHT22;42288;52.182;21.156;2023-04-03T03:30:58;2.60;94.50
16980;DHT22;42288;52.182;21.156;2023-04-03T03:33:24;2.60;94.50
16980;DHT22;42288;52.182;21.156;2023-04-03T03:35:51;2.60;93.60
16980;DHT22;42288;52.182;21.156;2023-04-03T03:38:17;2.50;93.90
16980;DHT22;42288;52.182;21.156;2023-04-03T03:40:43;2.40;95.80
16980;DHT22;42288;52.182;21.156;2023-04-03T03:43:08;2.20;93.80
16980;DHT22;42288;52.182;21.156;2023-04-03T03:45:34;2.40;95.80
16980;DHT22;42288;52.182;21.156;2023-04-03T03:48:00;2.30;95.70
16980;DHT22;42288;52.182;21.156;2023-04-03T03:50:26;2.40;96.80
16980;DHT22;42288;52.182;21.156;2023-04-03T03:52:52;2.40;96.40
16980;DHT22;42288;52.182;21.156;2023-04-03T03:55:17;2.30;95.80
16980;DHT22;42288;52.182;21.156;2023-04-03T03:57:43;2.30;95.40
16980;DHT22;42288;52.182;21.156;2023-04-03T04:00:09;2.20;94.10
16980;DHT22;42288;52.182;21.156;2023-04-03T04:02:35;2.30;95.70
16980;DHT22;42288;52.182;21.156;2023-04-03T04:05:01;2.10;94.40
16980;DHT22;42288;52.182;21.156;2023-04-03T04:07:26;2.10;95.60
16980;DHT22;42288;52.182;21.156;2023-04-03T04:09:54;2.10;94.70
16980;DHT22;42288;52.182;21.156;2023-04-03T04:12:20;2.00;95.40
16980;DHT22;42288;52.182;21.156;2023-04-03T04:14:46;2.10;95.70
16980;DHT22;42288;52.182;21.156;2023-04-03T04:17:14;2.00;94.30
16980;DHT22;42288;52.182;21.156;2023-04-03T04:19:40;2.10;95.20
16980;DHT22;42288;52.182;21.156;2023-04-03T04:22:06;2.10;95.60
16980;DHT22;42288;52.182;21.156;2023-04-03T04:24:32;2.10;95.20
16980;DHT22;42288;52.182;21.156;2023-04-03T04:26:58;2.30;96.80
16980;DHT22;42288;52.182;21.156;2023-04-03T04:29:24;2.30;95.60
16980;DHT22;42288;52.182;21.156;2023-04-03T04:31:49;2.40;96.50
16980;DHT22;42288;52.182;21.156;2023-04-03T04:34:15;2.20;95.40
16980;DHT22;42288;52.182;21.156;2023-04-03T04:36:41;2.40;96.70
16980;DHT22;42288;52.182;21.156;2023-04-03T04:39:06;2.10;95.30
16980;DHT22;42288;52.182;21.156;2023-04-03T04:41:32;2.40;96.30
16980;DHT22;42288;52.182;21.156;2023-04-03T04:43:58;2.20;94.60
16980;DHT22;42288;52.182;21.156;2023-04-03T04:46:24;2.30;95.90
16980;DHT22;42288;52.182;21.156;2023-04-03T04:48:50;2.40;95.20
16980;DHT22;42288;52.182;21.156;2023-04-03T04:51:16;2.30;94.50
16980;DHT22;42288;52.182;21.156;2023-04-03T04:53:42;2.50;95.10
16980;DHT22;42288;52.182;21.156;2023-04-03T04:56:08;2.50;95.60
16980;DHT22;42288;52.182;21.156;2023-04-03T04:58:35;2.40;94.40
16980;DHT22;42288;52.182;21.156;2023-04-03T05:01:05;2.50;95.50
16980;DHT22;42288;52.182;21.156;2023-04-03T05:03:32;2.60;95.40
16980;DHT22;42288;52.182;21.156;2023-04-03T05:05:58;2.10;93.80
16980;DHT22;42288;52.182;21.156;2023-04-03T05:08:24;2.40;96.80
16980;DHT22;42288;52.182;21.156;2023-04-03T05:10:49;2.60;96.90
16980;DHT22;42288;52.182;21.156;2023-04-03T05:13:15;2.40;94.90
16980;DHT22;42288;52.182;21.156;2023-04-03T05:15:41;2.50;95.20
16980;DHT22;42288;52.182;21.156;2023-04-03T05:18:07;2.40;95.80
16980;DHT22;42288;52.182;21.156;2023-04-03T05:20:33;2.50;96.60
16980;DHT22;42288;52.182;21.156;2023-04-03T05:22:59;2.30;94.80
16980;DHT22;42288;52.182;21.156;2023-04-03T05:25:24;2.60;96.20
16980;DHT22;42288;52.182;21.156;2023-04-03T05:27:50;2.60;95.90
16980;DHT22;42288;52.182;21.156;2023-04-03T05:30:16;2.60;96.00
16980;DHT22;42288;52.182;21.156;2023-04-03T05:32:42;2.40;93.50
16980;DHT22;42288;52.182;21.156;2023-04-03T05:35:08;2.50;95.90
16980;DHT22;42288;52.182;21.156;2023-04-03T05:37:35;2.60;94.80
16980;DHT22;42288;52.182;21.156;2023-04-03T05:40:00;2.50;94.70
16980;DHT22;42288;52.182;21.156;2023-04-03T05:42:26;2.70;95.30
16980;DHT22;42288;52.182;21.156;2023-04-03T05:44:52;2.90;96.60
16980;DHT22;42288;52.182;21.156;2023-04-03T05:47:18;3.10;96.70
16980;DHT22;42288;52.182;21.156;2023-04-03T05:49:44;3.20;95.10
16980;DHT22;42288;52.182;21.156;2023-04-03T05:52:30;3.20;94.10
16980;DHT22;42288;52.182;21.156;2023-04-03T05:54:57;3.40;94.80
16980;DHT22;42288;52.182;21.156;2023-04-03T05:57:23;3.40;95.00
16980;DHT22;42288;52.182;21.156;2023-04-03T05:59:48;3.60;96.60
16980;DHT22;42288;52.182;21.156;2023-04-03T06:02:21;3.60;95.30
16980;DHT22;42288;52.182;21.156;2023-04-03T06:04:47;3.60;94.50
16980;DHT22;42288;52.182;21.156;2023-04-03T06:07:24;3.90;94.60
16980;DHT22;42288;52.182;21.156;2023-04-03T06:09:53;3.80;93.00
16980;DHT22;42288;52.182;21.156;2023-04-03T06:12:19;3.60;92.80
16980;DHT22;42288;52.182;21.156;2023-04-03T06:14:45;3.50;91.90
16980;DHT22;42288;52.182;21.156;2023-04-03T06:17:11;3.60;94.10
16980;DHT22;42288;52.182;21.156;2023-04-03T06:19:37;3.70;93.80
16980;DHT22;42288;52.182;21.156;2023-04-03T06:22:03;4.00;94.40
16980;DHT22;42288;52.182;21.156;2023-04-03T06:24:29;4.10;93.60
16980;DHT22;42288;52.182;21.156;2023-04-03T06:26:56;4.30;94.10
16980;DHT22;42288;52.182;21.156;2023-04-03T06:29:21;4.20;93.00
16980;DHT22;42288;52.182;21.156;2023-04-03T06:31:48;4.30;93.00
16980;DHT22;42288;52.182;21.156;2023-04-03T06:34:14;4.40;92.50
16980;DHT22;42288;52.182;21.156;2023-04-03T06:36:40;4.50;93.80
16980;DHT22;42288;52.182;21.156;2023-04-03T06:39:06;4.60;92.00
16980;DHT22;42288;52.182;21.156;2023-04-03T06:41:32;4.40;91.80
16980;DHT22;42288;52.182;21.156;2023-04-03T06:43:58;4.60;93.00
16980;DHT22;42288;52.182;21.156;2023-04-03T06:46:25;4.70;93.30
16980;DHT22;42288;52.182;21.156;2023-04-03T06:48:51;4.60;92.60
16980;DHT22;42288;52.182;21.156;2023-04-03T06:51:18;4.70;93.70
16980;DHT22;42288;52.182;21.156;2023-04-03T06:53:45;4.70;92.70
16980;DHT22;42288;52.182;21.156;2023-04-03T06:56:11;4.60;90.20
16980;DHT22;42288;52.182;21.156;2023-04-03T06:58:37;4.90;93.40
16980;DHT22;42288;52.182;21.156;2023-04-03T07:01:03;5.10;93.70
16980;DHT22;42288;52.182;21.156;2023-04-03T07:03:28;5.00;91.70
16980;DHT22;42288;52.182;21.156;2023-04-03T07:05:54;4.80;91.20
16980;DHT22;42288;52.182;21.156;2023-04-03T07:08:20;4.40;89.60
16980;DHT22;42288;52.182;21.156;2023-04-03T07:10:46;4.60;91.30
16980;DHT22;42288;52.182;21.156;2023-04-03T07:13:12;4.70;92.70
16980;DHT22;42288;52.182;21.156;2023-04-03T07:15:37;4.70;91.50
16980;DHT22;42288;52.182;21.156;2023-04-03T07:18:03;4.70;90.00
16980;DHT22;42288;52.182;21.156;2023-04-03T07:20:29;4.70;90.10
16980;DHT22;42288;52.182;21.156;2023-04-03T07:22:55;4.90;90.80
16980;DHT22;42288;52.182;21.156;2023-04-03T07:25:21;4.70;91.10
16980;DHT22;42288;52.182;21.156;2023-04-03T07:27:47;5.00;92.40
16980;DHT22;42288;52.182;21.156;2023-04-03T07:30:13;5.00;91.50
16980;DHT22;42288;52.182;21.156;2023-04-03T07:32:39;5.10;91.70
16980;DHT22;42288;52.182;21.156;2023-04-03T07:35:06;5.20;92.30
16980;DHT22;42288;52.182;21.156;2023-04-03T07:37:31;5.20;92.20
16980;DHT22;42288;52.182;21.156;2023-04-03T07:39:57;5.40;88.60
16980;DHT22;42288;52.182;21.156;2023-04-03T07:42:25;5.40;90.50
16980;DHT22;42288;52.182;21.156;2023-04-03T07:44:53;5.40;88.60
16980;DHT22;42288;52.182;21.156;2023-04-03T07:47:19;5.30;90.60
16980;DHT22;42288;52.182;21.156;2023-04-03T07:49:45;5.40;90.00
16980;DHT22;42288;52.182;21.156;2023-04-03T07:52:11;5.70;91.40
16980;DHT22;42288;52.182;21.156;2023-04-03T07:54:37;5.80;91.60
16980;DHT22;42288;52.182;21.156;2023-04-03T07:57:03;5.70;88.40
16980;DHT22;42288;52.182;21.156;2023-04-03T07:59:29;5.70;85.10
16980;DHT22;42288;52.182;21.156;2023-04-03T08:01:55;5.80;84.00
16980;DHT22;42288;52.182;21.156;2023-04-03T08:04:20;5.80;87.00
16980;DHT22;42288;52.182;21.156;2023-04-03T08:06:46;5.80;86.20
16980;DHT22;42288;52.182;21.156;2023-04-03T08:09:12;5.80;85.70
16980;DHT22;42288;52.182;21.156;2023-04-03T08:11:39;6.00;85.90
16980;DHT22;42288;52.182;21.156;2023-04-03T08:14:05;6.30;90.50
16980;DHT22;42288;52.182;21.156;2023-04-03T08:16:30;6.30;87.80
16980;DHT22;42288;52.182;21.156;2023-04-03T08:18:56;6.40;90.30
16980;DHT22;42288;52.182;21.156;2023-04-03T08:21:22;6.20;83.40
16980;DHT22;42288;52.182;21.156;2023-04-03T08:23:49;6.10;82.40
16980;DHT22;42288;52.182;21.156;2023-04-03T08:26:18;6.30;85.00
16980;DHT22;42288;52.182;21.156;2023-04-03T08:28:44;6.50;85.20
16980;DHT22;42288;52.182;21.156;2023-04-03T08:31:13;6.40;80.30
16980;DHT22;42288;52.182;21.156;2023-04-03T08:33:40;6.30;80.50
16980;DHT22;42288;52.182;21.156;2023-04-03T08:36:07;6.60;85.30
16980;DHT22;42288;52.182;21.156;2023-04-03T08:38:34;6.70;84.10
16980;DHT22;42288;52.182;21.156;2023-04-03T08:49:57;7.30;82.50
16980;DHT22;42288;52.182;21.156;2023-04-03T08:54:56;7.10;77.40
16980;DHT22;42288;52.182;21.156;2023-04-03T08:57:43;7.00;79.70
16980;DHT22;42288;52.182;21.156;2023-04-03T09:00:21;7.00;81.20
16980;DHT22;42288;52.182;21.156;2023-04-03T09:02:53;7.30;81.30
16980;DHT22;42288;52.182;21.156;2023-04-03T09:14:33;7.20;74.60
16980;DHT22;42288;52.182;21.156;2023-04-03T09:22:34;7.50;76.60
16980;DHT22;42288;52.182;21.156;2023-04-03T09:27:41;7.70;77.70
16980;DHT22;42288;52.182;21.156;2023-04-03T09:30:13;7.90;80.00
16980;DHT22;42288;52.182;21.156;2023-04-03T09:32:40;7.70;75.20
16980;DHT22;42288;52.182;21.156;2023-04-03T09:35:18;7.60;74.80
16980;DHT22;42288;52.182;21.156;2023-04-03T09:37:50;7.50;75.30
16980;DHT22;42288;52.182;21.156;2023-04-03T09:43:00;8.30;76.80
16980;DHT22;42288;52.182;21.156;2023-04-03T09:45:34;8.30;71.50
16980;DHT22;42288;52.182;21.156;2023-04-03T09:51:00;8.30;73.60
16980;DHT22;42288;52.182;21.156;2023-04-03T09:53:42;8.30;68.00
16980;DHT22;42288;52.182;21.156;2023-04-03T09:58:45;8.30;66.70
16980;DHT22;42288;52.182;21.156;2023-04-03T10:01:41;8.70;69.10
16980;DHT22;42288;52.182;21.156;2023-04-03T10:06:36;8.50;69.10
16980;DHT22;42288;52.182;21.156;2023-04-03T10:09:05;8.20;66.80
16980;DHT22;42288;52.182;21.156;2023-04-03T10:11:31;8.40;71.10
16980;DHT22;42288;52.182;21.156;2023-04-03T10:13:59;8.60;70.40
16980;DHT22;42288;52.182;21.156;2023-04-03T10:16:50;9.20;71.00
16980;DHT22;42288;52.182;21.156;2023-04-03T10:22:36;9.60;64.30
16980;DHT22;42288;52.182;21.156;2023-04-03T10:42:03;10.90;59.80
16980;DHT22;42288;52.182;21.156;2023-04-03T10:52:52;14.30;54.20
16980;DHT22;42288;52.182;21.156;2023-04-03T10:57:55;15.20;55.90
16980;DHT22;42288;52.182;21.156;2023-04-03T11:00:35;18.10;52.20
16980;DHT22;42288;52.182;21.156;2023-04-03T11:03:11;20.40;47.70
16980;DHT22;42288;52.182;21.156;2023-04-03T11:05:50;19.40;44.30
16980;DHT22;42288;52.182;21.156;2023-04-03T11:11:20;17.80;45.70
16980;DHT22;42288;52.182;21.156;2023-04-03T11:14:01;16.20;43.10
16980;DHT22;42288;52.182;21.156;2023-04-03T11:16:30;13.90;42.80
16980;DHT22;42288;52.182;21.156;2023-04-03T11:19:11;13.30;47.60
16980;DHT22;42288;52.182;21.156;2023-04-03T11:21:46;14.90;47.40
16980;DHT22;42288;52.182;21.156;2023-04-03T11:24:21;16.20;45.30
16980;DHT22;42288;52.182;21.156;2023-04-03T11:26:49;18.00;45.80
16980;DHT22;42288;52.182;21.156;2023-04-03T11:29:20;16.60;44.70
16980;DHT22;42288;52.182;21.156;2023-04-03T11:36:58;14.10;45.80
16980;DHT22;42288;52.182;21.156;2023-04-03T11:39:32;12.90;46.60
16980;DHT22;42288;52.182;21.156;2023-04-03T11:42:41;12.50;45.80
16980;DHT22;42288;52.182;21.156;2023-04-03T11:58:38;11.80;51.80
16980;DHT22;42288;52.182;21.156;2023-04-03T12:01:09;11.30;50.20
16980;DHT22;42288;52.182;21.156;2023-04-03T12:14:02;12.50;47.50
16980;DHT22;42288;52.182;21.156;2023-04-03T12:19:35;11.60;48.20
16980;DHT22;42288;52.182;21.156;2023-04-03T12:24:30;12.60;48.20
16980;DHT22;42288;52.182;21.156;2023-04-03T12:27:34;13.30;48.40
16980;DHT22;42288;52.182;21.156;2023-04-03T12:35:31;12.20;47.10
16980;DHT22;42288;52.182;21.156;2023-04-03T12:41:21;11.90;47.70
16980;DHT22;42288;52.182;21.156;2023-04-03T12:46:59;12.70;47.90
16980;DHT22;42288;52.182;21.156;2023-04-03T12:51:54;12.20;50.10
16980;DHT22;42288;52.182;21.156;2023-04-03T12:54:30;12.70;49.40
16980;DHT22;42288;52.182;21.156;2023-04-03T12:57:20;13.10;48.80
16980;DHT22;42288;52.182;21.156;2023-04-03T12:59:47;13.20;44.90
16980;DHT22;42288;52.182;21.156;2023-04-03T13:02:24;13.00;45.30
16980;DHT22;42288;52.182;21.156;2023-04-03T13:04:54;12.60;47.60
16980;DHT22;42288;52.182;21.156;2023-04-03T13:07:32;12.30;48.60
16980;DHT22;42288;52.182;21.156;2023-04-03T13:10:09;11.90;47.20
16980;DHT22;42288;52.182;21.156;2023-04-03T13:12:54;11.30;49.40
16980;DHT22;42288;52.182;21.156;2023-04-03T13:17:50;12.00;48.50
16980;DHT22;42288;52.182;21.156;2023-04-03T13:20:22;12.10;47.10
16980;DHT22;42288;52.182;21.156;2023-04-03T13:22:54;11.70;47.40
16980;DHT22;42288;52.182;21.156;2023-04-03T13:25:23;11.40;47.20
16980;DHT22;42288;52.182;21.156;2023-04-03T13:27:49;11.50;49.20
16980;DHT22;42288;52.182;21.156;2023-04-03T13:30:35;11.20;49.00
16980;DHT22;42288;52.182;21.156;2023-04-03T13:33:04;10.90;50.00
16980;DHT22;42288;52.182;21.156;2023-04-03T13:35:37;11.50;52.30
16980;DHT22;42288;52.182;21.156;2023-04-03T13:38:24;11.90;50.10
16980;DHT22;42288;52.182;21.156;2023-04-03T13:40:55;11.50;49.40
16980;DHT22;42288;52.182;21.156;2023-04-03T13:43:24;11.30;48.70
16980;DHT22;42288;52.182;21.156;2023-04-03T13:46:44;11.30;50.00
16980;DHT22;42288;52.182;21.156;2023-04-03T13:48:53;11.20;47.50
16980;DHT22;42288;52.182;21.156;2023-04-03T13:51:25;10.50;47.40
16980;DHT22;42288;52.182;21.156;2023-04-03T13:53:58;10.70;50.20
16980;DHT22;42288;52.182;21.156;2023-04-03T13:56:34;10.50;50.00
16980;DHT22;42288;52.182;21.156;2023-04-03T14:01:44;10.10;49.90
16980;DHT22;42288;52.182;21.156;2023-04-03T14:04:31;10.10;51.00
16980;DHT22;42288;52.182;21.156;2023-04-03T14:06:58;10.30;51.20
16980;DHT22;42288;52.182;21.156;2023-04-03T14:09:26;10.60;51.30
16980;DHT22;42288;52.182;21.156;2023-04-03T14:11:55;10.60;50.60
16980;DHT22;42288;52.182;21.156;2023-04-03T14:14:26;10.60;49.90
16980;DHT22;42288;52.182;21.156;2023-04-03T14:16:55;10.60;50.20
16980;DHT22;42288;52.182;21.156;2023-04-03T14:19:27;11.10;49.80
16980;DHT22;42288;52.182;21.156;2023-04-03T14:21:54;11.10;49.70
16980;DHT22;42288;52.182;21.156;2023-04-03T14:24:20;11.10;49.40
16980;DHT22;42288;52.182;21.156;2023-04-03T14:26:46;10.50;49.50
16980;DHT22;42288;52.182;21.156;2023-04-03T14:29:12;10.70;51.30
16980;DHT22;42288;52.182;21.156;2023-04-03T14:31:39;10.40;47.40
16980;DHT22;42288;52.182;21.156;2023-04-03T14:34:05;10.00;53.30
16980;DHT22;42288;52.182;21.156;2023-04-03T14:36:31;9.70;51.60
16980;DHT22;42288;52.182;21.156;2023-04-03T14:38:57;9.70;52.10
16980;DHT22;42288;52.182;21.156;2023-04-03T14:41:25;9.50;51.70
16980;DHT22;42288;52.182;21.156;2023-04-03T14:43:52;9.40;51.60
16980;DHT22;42288;52.182;21.156;2023-04-03T14:46:21;9.20;52.60
16980;DHT22;42288;52.182;21.156;2023-04-03T14:48:48;9.60;54.90
16980;DHT22;42288;52.182;21.156;2023-04-03T14:51:14;9.40;51.10
16980;DHT22;42288;52.182;21.156;2023-04-03T14:53:41;9.40;51.20
16980;DHT22;42288;52.182;21.156;2023-04-03T14:56:12;9.30;53.50
16980;DHT22;42288;52.182;21.156;2023-04-03T14:58:39;9.20;53.30
16980;DHT22;42288;52.182;21.156;2023-04-03T15:01:04;9.40;54.70
16980;DHT22;42288;52.182;21.156;2023-04-03T15:03:30;9.40;52.80
16980;DHT22;42288;52.182;21.156;2023-04-03T15:05:56;9.20;53.10
16980;DHT22;42288;52.182;21.156;2023-04-03T15:08:25;9.30;53.70
16980;DHT22;42288;52.182;21.156;2023-04-03T15:10:52;9.40;53.80
16980;DHT22;42288;52.182;21.156;2023-04-03T15:13:19;9.30;54.90
16980;DHT22;42288;52.182;21.156;2023-04-03T15:15:45;8.90;52.10
16980;DHT22;42288;52.182;21.156;2023-04-03T15:18:18;9.00;55.20
16980;DHT22;42288;52.182;21.156;2023-04-03T15:20:45;9.10;53.60
16980;DHT22;42288;52.182;21.156;2023-04-03T15:23:13;8.80;52.20
16980;DHT22;42288;52.182;21.156;2023-04-03T15:25:44;8.80;54.50
16980;DHT22;42288;52.182;21.156;2023-04-03T15:28:26;8.90;54.40
16980;DHT22;42288;52.182;21.156;2023-04-03T15:30:53;8.90;54.40
16980;DHT22;42288;52.182;21.156;2023-04-03T15:33:18;8.90;53.20
16980;DHT22;42288;52.182;21.156;2023-04-03T15:35:44;8.90;54.40
16980;DHT22;42288;52.182;21.156;2023-04-03T15:38:10;8.60;54.30
16980;DHT22;42288;52.182;21.156;2023-04-03T15:40:36;8.50;54.50
16980;DHT22;42288;52.182;21.156;2023-04-03T15:43:02;8.60;55.10
16980;DHT22;42288;52.182;21.156;2023-04-03T15:45:30;8.80;55.60
16980;DHT22;42288;52.182;21.156;2023-04-03T15:47:56;8.40;53.50
16980;DHT22;42288;52.182;21.156;2023-04-03T15:50:22;8.60;55.10
16980;DHT22;42288;52.182;21.156;2023-04-03T15:52:49;8.40;54.80
16980;DHT22;42288;52.182;21.156;2023-04-03T15:55:23;8.30;54.60
16980;DHT22;42288;52.182;21.156;2023-04-03T15:57:49;8.30;54.20
16980;DHT22;42288;52.182;21.156;2023-04-03T16:00:15;8.30;55.30
16980;DHT22;42288;52.182;21.156;2023-04-03T16:02:42;8.30;54.80
16980;DHT22;42288;52.182;21.156;2023-04-03T16:05:09;8.20;55.90
16980;DHT22;42288;52.182;21.156;2023-04-03T16:07:38;8.10;54.10
16980;DHT22;42288;52.182;21.156;2023-04-03T16:10:05;8.30;55.60
16980;DHT22;42288;52.182;21.156;2023-04-03T16:12:30;8.30;55.10
16980;DHT22;42288;52.182;21.156;2023-04-03T16:14:56;8.20;54.90
16980;DHT22;42288;52.182;21.156;2023-04-03T16:17:22;8.20;54.30
16980;DHT22;42288;52.182;21.156;2023-04-03T16:19:47;8.10;55.30
16980;DHT22;42288;52.182;21.156;2023-04-03T16:22:13;8.10;56.90
16980;DHT22;42288;52.182;21.156;2023-04-03T16:24:38;7.90;55.00
16980;DHT22;42288;52.182;21.156;2023-04-03T16:27:04;7.90;56.50
16980;DHT22;42288;52.182;21.156;2023-04-03T16:29:30;8.10;58.90
16980;DHT22;42288;52.182;21.156;2023-04-03T16:31:57;7.70;55.10
16980;DHT22;42288;52.182;21.156;2023-04-03T16:34:23;7.70;54.60
16980;DHT22;42288;52.182;21.156;2023-04-03T16:36:51;7.70;57.50
16980;DHT22;42288;52.182;21.156;2023-04-03T16:39:17;7.70;56.60
16980;DHT22;42288;52.182;21.156;2023-04-03T16:41:43;7.60;56.50
16980;DHT22;42288;52.182;21.156;2023-04-03T16:44:09;7.70;57.60
16980;DHT22;42288;52.182;21.156;2023-04-03T16:46:35;7.60;57.60
16980;DHT22;42288;52.182;21.156;2023-04-03T16:49:00;7.70;57.80
16980;DHT22;42288;52.182;21.156;2023-04-03T16:51:26;7.60;56.10
16980;DHT22;42288;52.182;21.156;2023-04-03T16:53:52;7.50;57.50
16980;DHT22;42288;52.182;21.156;2023-04-03T16:56:17;7.50;57.70
16980;DHT22;42288;52.182;21.156;2023-04-03T16:58:43;7.50;57.10
16980;DHT22;42288;52.182;21.156;2023-04-03T17:01:10;7.60;58.30
16980;DHT22;42288;52.182;21.156;2023-04-03T17:03:36;7.50;58.10
16980;DHT22;42288;52.182;21.156;2023-04-03T17:06:02;7.20;54.20
16980;DHT22;42288;52.182;21.156;2023-04-03T17:08:27;7.00;55.10
16980;DHT22;42288;52.182;21.156;2023-04-03T17:10:53;6.90;55.30
16980;DHT22;42288;52.182;21.156;2023-04-03T17:13:20;6.80;56.80
16980;DHT22;42288;52.182;21.156;2023-04-03T17:15:45;6.80;56.30
16980;DHT22;42288;52.182;21.156;2023-04-03T17:18:11;6.70;55.20
16980;DHT22;42288;52.182;21.156;2023-04-03T17:20:37;6.60;56.30
16980;DHT22;42288;52.182;21.156;2023-04-03T17:23:04;6.60;58.80
16980;DHT22;42288;52.182;21.156;2023-04-03T17:25:29;6.70;58.30
16980;DHT22;42288;52.182;21.156;2023-04-03T17:27:55;6.90;59.20
16980;DHT22;42288;52.182;21.156;2023-04-03T17:30:21;6.80;56.50
16980;DHT22;42288;52.182;21.156;2023-04-03T17:32:47;7.00;59.00
16980;DHT22;42288;52.182;21.156;2023-04-03T17:35:13;7.00;57.40
16980;DHT22;42288;52.182;21.156;2023-04-03T17:37:38;6.90;58.20
16980;DHT22;42288;52.182;21.156;2023-04-03T17:40:05;6.80;57.40
16980;DHT22;42288;52.182;21.156;2023-04-03T17:42:31;6.80;56.30
16980;DHT22;42288;52.182;21.156;2023-04-03T17:44:57;7.00;57.20
16980;DHT22;42288;52.182;21.156;2023-04-03T17:47:22;6.90;57.80
16980;DHT22;42288;52.182;21.156;2023-04-03T17:49:50;6.90;58.60